sensor_id;sensor_type;location;lat;lon;timestamp;pressure;altitude;pressure_sealevel;temperature;humidity
62072;BME280;48031;48.542;13.232;2023-10-09T00:03:46;98067.06;;;16.61;100.00
62072;BME280;48031;48.542;13.232;2023-10-09T00:07:55;98062.94;;;16.44;100.00
62072;BME280;48031;48.542;13.232;2023-10-09T00:11:58;98067.63;;;16.69;100.00
62072;BME280;48031;48.542;13.232;2023-10-09T00:16:05;98064.31;;;16.67;100.00
62072;BME280;48031;48.542;13.232;2023-10-09T00:20:15;98063.22;;;16.62;100.00
62072;BME280;48031;48.542;13.232;2023-10-09T00:24:23;98068.41;;;16.54;100.00
62072;BME280;48031;48.542;13.232;2023-10-09T00:28:25;98047.31;;;16.49;100.00
62072;BME280;48031;48.542;13.232;2023-10-09T00:32:28;98046.47;;;16.29;100.00
62072;BME280;48031;48.542;13.232;2023-10-09T00:36:35;98054.16;;;16.57;100.00
62072;BME280;48031;48.542;13.232;2023-10-09T00:40:53;98051.41;;;16.42;100.00
62072;BME280;48031;48.542;13.232;2023-10-09T00:44:59;98039.91;;;16.45;100.00
62072;BME280;48031;48.542;13.232;2023-10-09T00:49:10;98046.47;;;16.39;100.00
62072;BME280;48031;48.542;13.232;2023-10-09T00:53:13;98039.34;;;16.28;100.00
62072;BME280;48031;48.542;13.232;2023-10-09T00:57:20;98032.50;;;16.40;100.00
62072;BME280;48031;48.542;13.232;2023-10-09T01:01:27;98026.50;;;16.38;100.00
62072;BME280;48031;48.542;13.232;2023-10-09T01:06:01;98028.38;;;16.28;100.00
62072;BME280;48031;48.542;13.232;2023-10-09T01:10:13;98023.72;;;16.33;100.00
62072;BME280;48031;48.542;13.232;2023-10-09T01:14:18;98021.56;;;16.35;100.00
62072;BME280;48031;48.542;13.232;2023-10-09T01:18:25;98011.38;;;15.95;100.00
62072;BME280;48031;48.542;13.232;2023-10-09T01:22:34;98009.78;;;16.30;100.00
62072;BME280;48031;48.542;13.232;2023-10-09T01:26:39;98004.81;;;16.11;100.00
62072;BME280;48031;48.542;13.232;2023-10-09T01:30:42;98005.38;;;16.03;100.00
62072;BME280;48031;48.542;13.232;2023-10-09T01:34:45;98003.75;;;16.33;100.00
62072;BME280;48031;48.542;13.232;2023-10-09T01:38:47;98001.56;;;16.19;100.00
62072;BME280;48031;48.542;13.232;2023-10-09T01:42:52;98002.91;;;16.22;100.00
62072;BME280;48031;48.542;13.232;2023-10-09T01:46:54;97988.69;;;16.30;100.00
62072;BME280;48031;48.542;13.232;2023-10-09T01:50:58;97972.25;;;16.30;100.00
62072;BME280;48031;48.542;13.232;2023-10-09T01:55:02;97955.25;;;16.18;100.00
62072;BME280;48031;48.542;13.232;2023-10-09T01:59:23;97957.16;;;15.77;100.00
62072;BME280;48031;48.542;13.232;2023-10-09T02:03:27;97962.31;;;15.53;100.00
62072;BME280;48031;48.542;13.232;2023-10-09T02:07:32;97958.50;;;15.69;100.00
62072;BME280;48031;48.542;13.232;2023-10-09T02:11:43;97959.34;;;15.90;100.00
62072;BME280;48031;48.542;13.232;2023-10-09T02:15:47;97959.09;;;16.02;100.00
62072;BME280;48031;48.542;13.232;2023-10-09T02:19:52;97959.09;;;16.02;100.00
62072;BME280;48031;48.542;13.232;2023-10-09T02:23:54;97962.38;;;16.14;100.00
62072;BME280;48031;48.542;13.232;2023-10-09T02:27:58;97952.25;;;16.19;100.00
62072;BME280;48031;48.542;13.232;2023-10-09T02:32:01;97951.69;;;16.22;100.00
62072;BME280;48031;48.542;13.232;2023-10-09T02:36:15;97951.69;;;16.22;100.00
62072;BME280;48031;48.542;13.232;2023-10-09T02:40:18;97945.09;;;16.49;100.00
62072;BME280;48031;48.542;13.232;2023-10-09T02:44:27;97942.88;;;16.56;100.00
62072;BME280;48031;48.542;13.232;2023-10-09T02:48:33;97943.19;;;16.49;100.00
62072;BME280;48031;48.542;13.232;2023-10-09T02:52:38;97939.09;;;16.37;100.00
62072;BME280;48031;48.542;13.232;2023-10-09T02:56:47;97930.91;;;16.21;100.00
62072;BME280;48031;48.542;13.232;2023-10-09T03:00:57;97920.75;;;16.17;100.00
62072;BME280;48031;48.542;13.232;2023-10-09T03:04:59;97907.88;;;16.17;100.00
62072;BME280;48031;48.542;13.232;2023-10-09T03:09:02;97904.88;;;16.04;100.00
62072;BME280;48031;48.542;13.232;2023-10-09T03:13:19;97905.41;;;15.96;100.00
62072;BME280;48031;48.542;13.232;2023-10-09T03:17:22;97911.44;;;16.23;100.00
62072;BME280;48031;48.542;13.232;2023-10-09T03:21:25;97901.56;;;16.37;100.00
62072;BME280;48031;48.542;13.232;2023-10-09T03:25:27;97899.66;;;16.12;100.00
62072;BME280;48031;48.542;13.232;2023-10-09T03:29:30;97894.75;;;15.94;100.00
62072;BME280;48031;48.542;13.232;2023-10-09T03:33:33;97889.28;;;16.09;100.00
62072;BME280;48031;48.542;13.232;2023-10-09T03:37:36;97879.44;;;15.98;100.00
62072;BME280;48031;48.542;13.232;2023-10-09T03:41:41;97883.81;;;16.04;100.00
62072;BME280;48031;48.542;13.232;2023-10-09T03:45:44;97881.31;;;16.08;100.00
62072;BME280;48031;48.542;13.232;2023-10-09T03:49:56;97876.69;;;15.78;100.00
62072;BME280;48031;48.542;13.232;2023-10-09T03:53:59;97884.63;;;15.74;100.00
62072;BME280;48031;48.542;13.232;2023-10-09T03:58:09;97876.41;;;15.85;100.00
62072;BME280;48031;48.542;13.232;2023-10-09T04:02:15;97879.41;;;16.13;100.00
62072;BME280;48031;48.542;13.232;2023-10-09T04:06:19;97877.22;;;15.95;100.00
62072;BME280;48031;48.542;13.232;2023-10-09T04:10:22;97880.25;;;15.73;100.00
62072;BME280;48031;48.542;13.232;2023-10-09T04:14:44;97868.97;;;16.26;100.00
62072;BME280;48031;48.542;13.232;2023-10-09T04:18:58;97864.59;;;16.19;100.00
62072;BME280;48031;48.542;13.232;2023-10-09T04:23:21;97862.16;;;16.13;100.00
62072;BME280;48031;48.542;13.232;2023-10-09T04:27:38;97863.53;;;16.15;100.00
62072;BME280;48031;48.542;13.232;2023-10-09T04:31:40;97866.28;;;15.55;100.00
62072;BME280;48031;48.542;13.232;2023-10-09T04:35:43;97869.84;;;15.80;100.00
62072;BME280;48031;48.542;13.232;2023-10-09T04:40:08;97860.53;;;15.87;100.00
62072;BME280;48031;48.542;13.232;2023-10-09T04:44:14;97846.81;;;15.51;100.00
62072;BME280;48031;48.542;13.232;2023-10-09T04:48:26;97846.31;;;15.79;100.00
62072;BME280;48031;48.542;13.232;2023-10-09T04:52:35;97854.19;;;15.51;100.00
62072;BME280;48031;48.542;13.232;2023-10-09T04:56:37;97846.84;;;15.56;100.00
62072;BME280;48031;48.542;13.232;2023-10-09T05:00:53;97845.72;;;15.32;100.00
62072;BME280;48031;48.542;13.232;2023-10-09T05:04:59;97841.59;;;15.39;100.00
62072;BME280;48031;48.542;13.232;2023-10-09T05:09:40;97834.47;;;15.18;100.00
62072;BME280;48031;48.542;13.232;2023-10-09T05:13:57;97819.44;;;15.51;100.00
62072;BME280;48031;48.542;13.232;2023-10-09T05:18:13;97823.78;;;15.17;100.00
62072;BME280;48031;48.542;13.232;2023-10-09T05:22:18;97816.44;;;15.43;100.00
62072;BME280;48031;48.542;13.232;2023-10-09T05:26:39;97802.22;;;15.25;100.00
62072;BME280;48031;48.542;13.232;2023-10-09T05:30:48;97805.41;;;14.82;100.00
62072;BME280;48031;48.542;13.232;2023-10-09T05:34:58;97821.00;;;14.86;100.00
62072;BME280;48031;48.542;13.232;2023-10-09T05:39:06;97812.34;;;15.35;100.00
62072;BME280;48031;48.542;13.232;2023-10-09T05:43:24;97815.31;;;15.13;100.00
62072;BME280;48031;48.542;13.232;2023-10-09T05:47:51;97804.63;;;15.07;100.00
62072;BME280;48031;48.542;13.232;2023-10-09T05:52:00;97803.00;;;15.06;100.00
62072;BME280;48031;48.542;13.232;2023-10-09T05:56:21;97809.34;;;15.26;100.00
62072;BME280;48031;48.542;13.232;2023-10-09T06:00:42;97811.22;;;15.16;100.00
62072;BME280;48031;48.542;13.232;2023-10-09T06:05:05;97828.75;;;15.35;100.00
62072;BME280;48031;48.542;13.232;2023-10-09T06:09:28;97827.66;;;15.46;100.00
62072;BME280;48031;48.542;13.232;2023-10-09T06:13:50;97821.13;;;15.88;100.00
62072;BME280;48031;48.542;13.232;2023-10-09T06:18:05;97812.38;;;15.65;100.00
62072;BME280;48031;48.542;13.232;2023-10-09T06:22:25;97828.25;;;15.58;100.00
62072;BME280;48031;48.542;13.232;2023-10-09T06:26:47;97835.88;;;15.51;100.00
62072;BME280;48031;48.542;13.232;2023-10-09T06:31:02;97842.16;;;15.47;100.00
62072;BME280;48031;48.542;13.232;2023-10-09T06:35:25;97837.75;;;16.16;100.00
62072;BME280;48031;48.542;13.232;2023-10-09T06:39:35;97832.22;;;16.42;100.00
62072;BME280;48031;48.542;13.232;2023-10-09T06:43:52;97842.38;;;16.36;100.00
62072;BME280;48031;48.542;13.232;2023-10-09T06:47:55;97838.50;;;16.52;100.00
62072;BME280;48031;48.542;13.232;2023-10-09T06:51:58;97852.81;;;16.24;100.00
62072;BME280;48031;48.542;13.232;2023-10-09T06:56:18;97835.56;;;17.03;100.00
62072;BME280;48031;48.542;13.232;2023-10-09T07:00:38;97843.72;;;17.13;100.00
62072;BME280;48031;48.542;13.232;2023-10-09T07:04:59;97835.97;;;17.25;100.00
62072;BME280;48031;48.542;13.232;2023-10-09T07:09:15;97838.66;;;17.30;100.00
62072;BME280;48031;48.542;13.232;2023-10-09T07:13:17;97848.28;;;16.79;100.00
62072;BME280;48031;48.542;13.232;2023-10-09T07:17:21;97855.41;;;16.80;100.00
62072;BME280;48031;48.542;13.232;2023-10-09T07:21:46;97850.16;;;17.37;100.00
62072;BME280;48031;48.542;13.232;2023-10-09T07:26:03;97859.00;;;17.24;100.00
62072;BME280;48031;48.542;13.232;2023-10-09T07:30:21;97844.66;;;17.37;100.00
62072;BME280;48031;48.542;13.232;2023-10-09T07:34:34;97840.44;;;17.89;100.00
62072;BME280;48031;48.542;13.232;2023-10-09T07:38:56;97850.63;;;17.50;100.00
62072;BME280;48031;48.542;13.232;2023-10-09T07:42:58;97848.63;;;17.65;100.00
62072;BME280;48031;48.542;13.232;2023-10-09T07:47:06;97851.84;;;18.01;100.00
62072;BME280;48031;48.542;13.232;2023-10-09T07:51:27;97859.44;;;18.14;100.00
62072;BME280;48031;48.542;13.232;2023-10-09T07:55:39;97872.28;;;17.90;100.00
62072;BME280;48031;48.542;13.232;2023-10-09T07:59:42;97865.59;;;18.30;100.00
62072;BME280;48031;48.542;13.232;2023-10-09T08:03:56;97850.31;;;19.14;97.40
62072;BME280;48031;48.542;13.232;2023-10-09T08:08:10;97853.63;;;19.54;98.19
62072;BME280;48031;48.542;13.232;2023-10-09T08:12:44;97862.22;;;19.84;94.44
62072;BME280;48031;48.542;13.232;2023-10-09T08:16:52;97863.56;;;20.65;91.09
62072;BME280;48031;48.542;13.232;2023-10-09T08:21:12;97868.34;;;20.14;92.75
62072;BME280;48031;48.542;13.232;2023-10-09T08:25:14;97871.00;;;20.19;93.78
62072;BME280;48031;48.542;13.232;2023-10-09T08:29:30;97876.91;;;19.80;93.99
62072;BME280;48031;48.542;13.232;2023-10-09T08:33:36;97880.06;;;20.38;94.64
62072;BME280;48031;48.542;13.232;2023-10-09T08:37:47;97869.06;;;20.52;93.43
62072;BME280;48031;48.542;13.232;2023-10-09T08:41:52;97873.56;;;20.75;94.41
62072;BME280;48031;48.542;13.232;2023-10-09T08:45:56;97867.72;;;20.63;92.24
62072;BME280;48031;48.542;13.232;2023-10-09T08:50:05;97868.06;;;20.61;93.23
62072;BME280;48031;48.542;13.232;2023-10-09T08:54:12;97870.59;;;20.58;94.59
62072;BME280;48031;48.542;13.232;2023-10-09T08:58:17;97867.81;;;21.12;93.46
62072;BME280;48031;48.542;13.232;2023-10-09T09:02:26;97858.53;;;21.58;91.23
62072;BME280;48031;48.542;13.232;2023-10-09T09:06:36;97853.81;;;22.17;90.46
62072;BME280;48031;48.542;13.232;2023-10-09T09:10:44;97857.63;;;21.85;90.47
62072;BME280;48031;48.542;13.232;2023-10-09T09:14:49;97866.03;;;21.80;91.10
62072;BME280;48031;48.542;13.232;2023-10-09T09:18:56;97873.84;;;21.78;92.57
62072;BME280;48031;48.542;13.232;2023-10-09T09:23:19;97859.72;;;24.11;82.90
62072;BME280;48031;48.542;13.232;2023-10-09T09:27:43;97880.78;;;22.11;90.24
62072;BME280;48031;48.542;13.232;2023-10-09T09:31:55;97885.81;;;23.02;87.53
62072;BME280;48031;48.542;13.232;2023-10-09T09:36:00;97893.25;;;23.32;83.56
62072;BME280;48031;48.542;13.232;2023-10-09T09:40:07;97891.63;;;23.40;84.17
62072;BME280;48031;48.542;13.232;2023-10-09T09:44:31;97880.28;;;25.71;77.17
62072;BME280;48031;48.542;13.232;2023-10-09T09:48:38;97884.31;;;28.30;70.00
62072;BME280;48031;48.542;13.232;2023-10-09T09:52:46;97886.84;;;28.35;68.31
62072;BME280;48031;48.542;13.232;2023-10-09T09:56:49;97867.34;;;30.37;65.29
62072;BME280;48031;48.542;13.232;2023-10-09T10:00:58;97873.78;;;28.82;67.47
62072;BME280;48031;48.542;13.232;2023-10-09T10:05:05;97890.34;;;25.63;72.19
62072;BME280;48031;48.542;13.232;2023-10-09T10:09:09;97887.88;;;26.57;72.54
62072;BME280;48031;48.542;13.232;2023-10-09T10:13:11;97893.81;;;26.67;72.93
62072;BME280;48031;48.542;13.232;2023-10-09T10:17:16;97891.28;;;25.88;73.23
62072;BME280;48031;48.542;13.232;2023-10-09T10:21:22;97885.16;;;27.66;69.62
62072;BME280;48031;48.542;13.232;2023-10-09T10:25:34;97893.03;;;26.79;68.81
62072;BME280;48031;48.542;13.232;2023-10-09T10:29:44;97894.78;;;26.38;69.07
62072;BME280;48031;48.542;13.232;2023-10-09T10:37:58;97870.69;;;26.55;68.72
62072;BME280;48031;48.542;13.232;2023-10-09T10:42:09;97884.34;;;26.15;70.31
62072;BME280;48031;48.542;13.232;2023-10-09T10:46:20;97886.63;;;25.80;71.79
62072;BME280;48031;48.542;13.232;2023-10-09T10:50:25;97891.97;;;25.05;74.14
62072;BME280;48031;48.542;13.232;2023-10-09T10:54:33;97890.56;;;24.91;76.26
62072;BME280;48031;48.542;13.232;2023-10-09T10:58:35;97886.91;;;25.07;76.16
62072;BME280;48031;48.542;13.232;2023-10-09T11:02:50;97876.53;;;24.78;77.80
62072;BME280;48031;48.542;13.232;2023-10-09T11:06:54;97885.50;;;23.94;79.14
62072;BME280;48031;48.542;13.232;2023-10-09T11:11:12;97897.88;;;23.54;81.06
62072;BME280;48031;48.542;13.232;2023-10-09T11:15:30;97904.75;;;23.74;80.76
62072;BME280;48031;48.542;13.232;2023-10-09T11:19:39;97894.63;;;24.03;81.63
62072;BME280;48031;48.542;13.232;2023-10-09T11:23:42;97886.47;;;24.33;81.27
62072;BME280;48031;48.542;13.232;2023-10-09T11:28:27;97882.91;;;24.70;79.58
62072;BME280;48031;48.542;13.232;2023-10-09T11:32:44;97878.13;;;24.24;80.67
62072;BME280;48031;48.542;13.232;2023-10-09T11:36:48;97894.47;;;24.26;80.88
62072;BME280;48031;48.542;13.232;2023-10-09T11:41:11;97890.63;;;25.41;78.07
62072;BME280;48031;48.542;13.232;2023-10-09T11:45:22;97882.72;;;23.60;84.14
62072;BME280;48031;48.542;13.232;2023-10-09T11:49:30;97874.50;;;23.38;85.98
62072;BME280;48031;48.542;13.232;2023-10-09T11:53:46;97882.31;;;23.27;86.99
62072;BME280;48031;48.542;13.232;2023-10-09T11:57:52;97879.94;;;22.64;88.44
62072;BME280;48031;48.542;13.232;2023-10-09T12:01:54;97882.97;;;23.33;87.43
62072;BME280;48031;48.542;13.232;2023-10-09T12:06:03;97830.16;;;23.20;89.64
62072;BME280;48031;48.542;13.232;2023-10-09T12:10:14;97877.03;;;23.00;91.45
62072;BME280;48031;48.542;13.232;2023-10-09T12:14:16;97852.63;;;23.19;92.91
62072;BME280;48031;48.542;13.232;2023-10-09T12:18:25;97903.38;;;22.13;94.78
62072;BME280;48031;48.542;13.232;2023-10-09T12:22:27;97824.03;;;22.14;96.99
62072;BME280;48031;48.542;13.232;2023-10-09T12:26:29;97843.66;;;23.13;92.58
62072;BME280;48031;48.542;13.232;2023-10-09T12:30:37;97907.28;;;22.65;93.26
62072;BME280;48031;48.542;13.232;2023-10-09T12:34:41;97879.13;;;23.51;90.81
62072;BME280;48031;48.542;13.232;2023-10-09T12:38:47;97903.66;;;23.18;91.10
62072;BME280;48031;48.542;13.232;2023-10-09T12:42:54;97859.41;;;23.70;88.45
62072;BME280;48031;48.542;13.232;2023-10-09T12:47:00;97842.22;;;23.16;89.42
62072;BME280;48031;48.542;13.232;2023-10-09T12:51:06;97803.47;;;23.59;91.22
62072;BME280;48031;48.542;13.232;2023-10-09T12:55:09;97862.41;;;22.15;96.46
62072;BME280;48031;48.542;13.232;2023-10-09T12:59:22;97814.25;;;22.38;93.93
62072;BME280;48031;48.542;13.232;2023-10-09T13:03:26;97788.75;;;22.50;98.74
62072;BME280;48031;48.542;13.232;2023-10-09T13:07:35;97767.50;;;22.28;99.72
62072;BME280;48031;48.542;13.232;2023-10-09T13:11:37;97782.53;;;22.45;100.00
62072;BME280;48031;48.542;13.232;2023-10-09T13:15:39;97762.16;;;22.80;99.93
62072;BME280;48031;48.542;13.232;2023-10-09T13:19:44;97765.50;;;22.60;99.85
62072;BME280;48031;48.542;13.232;2023-10-09T13:23:47;97793.97;;;22.60;100.00
62072;BME280;48031;48.542;13.232;2023-10-09T13:27:51;97825.91;;;21.82;100.00
62072;BME280;48031;48.542;13.232;2023-10-09T13:31:53;97845.66;;;22.12;100.00
62072;BME280;48031;48.542;13.232;2023-10-09T13:36:00;97840.56;;;22.36;100.00
62072;BME280;48031;48.542;13.232;2023-10-09T13:40:06;97836.78;;;23.02;100.00
62072;BME280;48031;48.542;13.232;2023-10-09T13:44:11;97835.50;;;23.08;99.05
62072;BME280;48031;48.542;13.232;2023-10-09T13:48:14;97832.25;;;22.27;100.00
62072;BME280;48031;48.542;13.232;2023-10-09T13:52:19;97850.66;;;22.32;100.00
62072;BME280;48031;48.542;13.232;2023-10-09T13:56:23;97893.63;;;21.57;100.00
62072;BME280;48031;48.542;13.232;2023-10-09T14:00:29;97920.38;;;21.48;100.00
62072;BME280;48031;48.542;13.232;2023-10-09T14:04:36;97937.75;;;21.49;100.00
62072;BME280;48031;48.542;13.232;2023-10-09T14:08:38;97972.72;;;21.12;100.00
62072;BME280;48031;48.542;13.232;2023-10-09T14:12:46;97921.81;;;21.05;100.00
62072;BME280;48031;48.542;13.232;2023-10-09T14:16:48;97815.41;;;21.48;100.00
62072;BME280;48031;48.542;13.232;2023-10-09T14:21:02;97799.13;;;21.91;100.00
62072;BME280;48031;48.542;13.232;2023-10-09T14:25:17;97778.56;;;22.28;100.00
62072;BME280;48031;48.542;13.232;2023-10-09T14:29:22;97753.41;;;21.85;100.00
62072;BME280;48031;48.542;13.232;2023-10-09T14:33:28;97750.50;;;21.60;100.00
62072;BME280;48031;48.542;13.232;2023-10-09T14:37:39;97745.91;;;22.08;100.00
62072;BME280;48031;48.542;13.232;2023-10-09T14:41:42;97744.13;;;22.04;100.00
62072;BME280;48031;48.542;13.232;2023-10-09T14:45:46;97751.94;;;21.57;100.00
62072;BME280;48031;48.542;13.232;2023-10-09T14:49:50;97745.03;;;21.46;100.00
62072;BME280;48031;48.542;13.232;2023-10-09T14:53:56;97746.69;;;21.11;100.00
62072;BME280;48031;48.542;13.232;2023-10-09T14:57:59;97745.78;;;21.15;100.00
62072;BME280;48031;48.542;13.232;2023-10-09T15:02:01;97740.94;;;21.07;100.00
62072;BME280;48031;48.542;13.232;2023-10-09T15:06:04;97729.56;;;21.89;100.00
62072;BME280;48031;48.542;13.232;2023-10-09T15:10:12;97716.06;;;21.66;100.00
62072;BME280;48031;48.542;13.232;2023-10-09T15:14:18;97715.63;;;21.72;100.00
62072;BME280;48031;48.542;13.232;2023-10-09T15:18:21;97709.47;;;21.75;99.23
62072;BME280;48031;48.542;13.232;2023-10-09T15:22:23;97729.50;;;21.81;100.00
62072;BME280;48031;48.542;13.232;2023-10-09T15:26:27;97725.88;;;21.72;97.49
62072;BME280;48031;48.542;13.232;2023-10-09T15:30:34;97725.16;;;21.88;96.54
62072;BME280;48031;48.542;13.232;2023-10-09T15:34:36;97730.13;;;21.78;97.21
62072;BME280;48031;48.542;13.232;2023-10-09T15:38:40;97716.66;;;21.85;100.00
62072;BME280;48031;48.542;13.232;2023-10-09T15:42:44;97737.53;;;21.69;100.00
62072;BME280;48031;48.542;13.232;2023-10-09T15:46:52;97743.28;;;21.14;100.00
62072;BME280;48031;48.542;13.232;2023-10-09T15:51:02;97758.25;;;20.99;100.00
62072;BME280;48031;48.542;13.232;2023-10-09T15:55:08;97766.31;;;20.96;98.30
62072;BME280;48031;48.542;13.232;2023-10-09T15:59:15;97761.47;;;20.79;98.95
62072;BME280;48031;48.542;13.232;2023-10-09T16:03:19;97749.28;;;20.94;99.65
62072;BME280;48031;48.542;13.232;2023-10-09T16:07:21;97762.38;;;20.74;96.98
62072;BME280;48031;48.542;13.232;2023-10-09T16:11:24;97763.97;;;21.03;99.15
62072;BME280;48031;48.542;13.232;2023-10-09T16:15:27;97769.44;;;20.81;100.00
62072;BME280;48031;48.542;13.232;2023-10-09T16:19:29;97778.53;;;20.67;100.00
62072;BME280;48031;48.542;13.232;2023-10-09T16:23:34;97778.13;;;20.74;100.00
62072;BME280;48031;48.542;13.232;2023-10-09T16:27:38;97782.44;;;20.66;100.00
62072;BME280;48031;48.542;13.232;2023-10-09T16:31:48;97778.72;;;20.85;100.00
62072;BME280;48031;48.542;13.232;2023-10-09T16:35:51;97787.94;;;20.53;100.00
62072;BME280;48031;48.542;13.232;2023-10-09T16:39:56;97781.13;;;20.50;100.00
62072;BME280;48031;48.542;13.232;2023-10-09T16:44:00;97764.25;;;20.52;100.00
62072;BME280;48031;48.542;13.232;2023-10-09T16:48:03;97756.91;;;20.61;99.82
62072;BME280;48031;48.542;13.232;2023-10-09T16:52:07;97761.19;;;20.53;100.00
62072;BME280;48031;48.542;13.232;2023-10-09T16:56:13;97747.47;;;20.89;100.00
62072;BME280;48031;48.542;13.232;2023-10-09T17:00:16;97755.63;;;20.81;100.00
62072;BME280;48031;48.542;13.232;2023-10-09T17:04:32;97765.25;;;20.69;100.00
62072;BME280;48031;48.542;13.232;2023-10-09T17:08:38;61634.44;;;-142.07;100.00
62072;BME280;48031;48.542;13.232;2023-10-09T17:12:44;61634.44;;;-142.07;100.00
62072;BME280;48031;48.542;13.232;2023-10-09T17:16:48;73880.16;;;-142.07;100.00
62072;BME280;48031;48.542;13.232;2023-10-09T17:20:52;97757.09;;;20.51;100.00
62072;BME280;48031;48.542;13.232;2023-10-09T17:24:54;97759.16;;;20.59;100.00
62072;BME280;48031;48.542;13.232;2023-10-09T17:28:56;97767.59;;;20.21;100.00
62072;BME280;48031;48.542;13.232;2023-10-09T17:32:58;97772.66;;;20.33;100.00
62072;BME280;48031;48.542;13.232;2023-10-09T17:37:00;97779.94;;;20.24;100.00
62072;BME280;48031;48.542;13.232;2023-10-09T17:41:05;61634.44;;;-142.07;100.00
62072;BME280;48031;48.542;13.232;2023-10-09T17:45:11;97775.31;;;20.38;100.00
62072;BME280;48031;48.542;13.232;2023-10-09T17:49:24;97790.66;;;20.25;100.00
62072;BME280;48031;48.542;13.232;2023-10-09T17:53:28;97781.66;;;20.06;100.00
62072;BME280;48031;48.542;13.232;2023-10-09T17:57:33;97785.59;;;19.86;100.00
62072;BME280;48031;48.542;13.232;2023-10-09T18:01:34;97776.66;;;20.08;100.00
62072;BME280;48031;48.542;13.232;2023-10-09T18:05:37;97777.78;;;20.07;100.00
62072;BME280;48031;48.542;13.232;2023-10-09T18:09:41;97761.72;;;19.96;100.00
62072;BME280;48031;48.542;13.232;2023-10-09T18:13:43;97748.69;;;19.87;100.00
62072;BME280;48031;48.542;13.232;2023-10-09T18:17:46;97748.69;;;19.87;100.00
62072;BME280;48031;48.542;13.232;2023-10-09T18:21:48;97755.72;;;19.93;100.00
62072;BME280;48031;48.542;13.232;2023-10-09T18:25:56;97755.19;;;19.91;100.00
62072;BME280;48031;48.542;13.232;2023-10-09T18:30:00;97766.31;;;19.86;100.00
62072;BME280;48031;48.542;13.232;2023-10-09T18:34:02;97755.66;;;19.66;100.00
62072;BME280;48031;48.542;13.232;2023-10-09T18:38:05;97754.91;;;19.93;100.00
62072;BME280;48031;48.542;13.232;2023-10-09T18:42:07;97747.25;;;20.04;100.00
62072;BME280;48031;48.542;13.232;2023-10-09T18:46:09;97757.06;;;20.10;100.00
62072;BME280;48031;48.542;13.232;2023-10-09T18:50:13;97760.41;;;20.07;100.00
62072;BME280;48031;48.542;13.232;2023-10-09T18:54:18;97772.66;;;20.01;100.00
62072;BME280;48031;48.542;13.232;2023-10-09T18:58:19;97790.09;;;19.82;100.00
62072;BME280;48031;48.542;13.232;2023-10-09T19:02:21;97785.88;;;19.71;100.00
62072;BME280;48031;48.542;13.232;2023-10-09T19:06:23;97781.13;;;19.90;100.00
62072;BME280;48031;48.542;13.232;2023-10-09T19:10:26;97800.03;;;19.65;100.00
62072;BME280;48031;48.542;13.232;2023-10-09T19:14:28;97799.75;;;19.80;100.00
62072;BME280;48031;48.542;13.232;2023-10-09T19:18:32;97793.72;;;20.10;100.00
62072;BME280;48031;48.542;13.232;2023-10-09T19:22:38;97803.22;;;19.72;100.00
62072;BME280;48031;48.542;13.232;2023-10-09T19:26:40;97800.50;;;19.85;100.00
62072;BME280;48031;48.542;13.232;2023-10-09T19:30:44;97808.22;;;19.70;100.00
62072;BME280;48031;48.542;13.232;2023-10-09T19:34:47;97804.44;;;19.66;100.00
62072;BME280;48031;48.542;13.232;2023-10-09T19:38:50;97808.09;;;19.61;100.00
62072;BME280;48031;48.542;13.232;2023-10-09T19:42:52;97806.84;;;19.67;100.00
62072;BME280;48031;48.542;13.232;2023-10-09T19:46:54;97787.09;;;19.46;100.00
62072;BME280;48031;48.542;13.232;2023-10-09T19:51:03;97768.47;;;19.57;100.00
62072;BME280;48031;48.542;13.232;2023-10-09T19:55:09;97764.56;;;19.26;100.00
62072;BME280;48031;48.542;13.232;2023-10-09T19:59:12;97795.34;;;18.90;100.00
62072;BME280;48031;48.542;13.232;2023-10-09T20:03:16;97802.22;;;19.49;100.00
62072;BME280;48031;48.542;13.232;2023-10-09T20:07:23;97826.31;;;19.20;100.00
62072;BME280;48031;48.542;13.232;2023-10-09T20:11:25;97815.09;;;19.54;100.00
62072;BME280;48031;48.542;13.232;2023-10-09T20:15:28;97818.22;;;19.47;100.00
62072;BME280;48031;48.542;13.232;2023-10-09T20:19:33;97810.66;;;19.71;100.00
62072;BME280;48031;48.542;13.232;2023-10-09T20:23:42;97812.53;;;19.57;100.00
62072;BME280;48031;48.542;13.232;2023-10-09T20:27:44;97809.78;;;19.57;100.00
62072;BME280;48031;48.542;13.232;2023-10-09T20:31:46;97787.03;;;19.33;100.00
62072;BME280;48031;48.542;13.232;2023-10-09T20:35:49;97815.13;;;19.30;100.00
62072;BME280;48031;48.542;13.232;2023-10-09T20:39:53;97815.88;;;19.35;100.00
62072;BME280;48031;48.542;13.232;2023-10-09T20:43:55;97811.50;;;19.53;100.00
62072;BME280;48031;48.542;13.232;2023-10-09T20:47:58;97816.63;;;19.41;100.00
62072;BME280;48031;48.542;13.232;2023-10-09T20:52:00;97826.75;;;19.27;100.00
62072;BME280;48031;48.542;13.232;2023-10-09T20:56:02;97858.78;;;19.18;100.00
62072;BME280;48031;48.542;13.232;2023-10-09T21:00:07;97865.25;;;19.08;100.00
62072;BME280;48031;48.542;13.232;2023-10-09T21:04:14;97865.22;;;19.32;100.00
62072;BME280;48031;48.542;13.232;2023-10-09T21:08:16;97848.63;;;19.37;100.00
62072;BME280;48031;48.542;13.232;2023-10-09T21:12:18;97842.44;;;19.26;100.00
62072;BME280;48031;48.542;13.232;2023-10-09T21:16:21;97833.97;;;19.41;100.00
62072;BME280;48031;48.542;13.232;2023-10-09T21:20:23;97835.09;;;19.59;100.00
62072;BME280;48031;48.542;13.232;2023-10-09T21:24:30;97848.78;;;19.45;100.00
62072;BME280;48031;48.542;13.232;2023-10-09T21:28:32;97868.16;;;19.59;100.00